Date,TemperatureHighF,TemperatureAvgF,TemperatureLowF,DewpointHighF,DewpointAvgF,DewpointLowF,HumidityHigh,HumidityAvg,HumidityLow,PressureMaxIn,PressureMinIn,WindSpeedMaxMPH,WindSpeedAvgMPH,GustSpeedMaxMPH,PrecipitationSumIn
2013-6-12,91,82,68,75,68,58,91,65,43,0.00,40.00,20,12,0,0.00
2013-6-13,83,72,61,66,60,51,95,69,34,0.00,40.00,13,7,0,0.00
2013-6-14,93,78,69,75,68,62,100,73,51,0.00,40.00,28,14,0,0.00
2013-6-15,85,78,71,75,70,-100,100,80,51,0.00,40.00,26,11,0,0.00
2013-6-16,89,78,71,75,70,64,100,78,45,0.00,40.00,11,6,0,0.00
2013-6-17,91,82,71,72,62,-100,100,59,28,0.00,40.00,10,6,0,0.00
2013-6-18,87,79,69,65,58,53,84,51,33,0.00,40.00,10,6,0,0.00
2013-6-19,91,80,69,68,65,61,94,62,38,0.00,40.00,18,11,0,0.00
2013-6-20,92,81,73,74,70,67,90,71,51,0.00,40.00,25,14,0,0.00
2013-6-22,94,89,77,72,70,66,77,54,42,0.00,40.00,25,18,0,0.00
2013-6-23,84,78,69,78,73,69,100,85,67,0.00,40.00,21,10,0,0.00
2013-6-24,85,79,71,79,76,71,100,90,77,0.00,40.00,26,9,0,0.00
2013-6-25,90,83,76,80,75,66,92,75,62,0.00,40.00,20,10,0,0.00
2013-6-26,94,85,77,80,71,-100,100,69,37,0.00,40.00,13,8,0,0.00
2013-6-27,87,78,73,76,73,68,94,84,61,0.00,40.00,15,7,0,0.00
2013-6-28,88,80,72,74,65,56,99,63,35,0.00,40.00,15,9,0,0.00
2013-6-29,85,76,67,64,60,57,81,60,40,0.00,40.00,20,11,0,0.00
2013-6-30,82,72,62,65,59,51,100,67,37,0.00,40.00,16,8,0,0.00
2013-7-1,85,76,60,61,56,51,93,54,32,0.00,40.00,15,7,0,0.00
2013-7-2,87,78,64,66,60,54,87,57,34,0.00,40.00,9,5,0,0.00
2013-7-3,87,79,65,66,60,52,92,54,31,0.00,40.00,16,6,0,0.00
2013-7-4,89,77,62,63,60,54,91,60,31,0.00,40.00,16,10,0,0.00
2013-7-5,90,80,68,68,65,60,83,61,41,0.00,40.00,17,11,0,0.00
2013-7-6,90,80,73,70,67,66,81,67,47,0.00,40.00,17,12,0,0.00
2013-7-7,95,85,78,74,68,65,71,58,39,0.00,40.00,19,12,0,0.00
2013-7-8,89,84,81,81,74,69,91,71,55,0.00,40.00,19,9,0,0.00
2013-7-9,98,87,78,79,76,72,94,70,46,0.00,40.00,15,7,0,0.00
2013-7-10,88,81,75,77,68,-100,95,68,46,0.00,40.00,14,7,0,0.00
2013-7-11,89,80,68,68,64,61,85,60,44,0.00,40.00,14,9,0,0.00
2013-7-12,91,82,71,74,69,63,80,65,54,0.00,40.00,17,12,0,0.00
2013-7-13,89,82,75,78,72,65,88,73,58,0.00,40.00,15,12,0,0.00
2013-7-14,88,81,73,72,67,61,85,64,42,0.00,40.00,16,10,0,0.00
2013-7-15,90,83,70,74,71,66,86,67,48,0.00,40.00,15,7,0,0.00
2013-7-16,92,83,74,74,70,66,96,68,44,0.00,40.00,10,6,0,0.00
2013-7-17,93,84,74,76,73,69,100,71,47,0.00,40.00,13,6,0,0.00
2013-7-18,95,86,76,76,72,67,95,66,40,0.00,40.00,18,10,0,0.00
2013-7-19,96,87,80,72,70,63,72,57,34,0.00,40.00,12,8,0,0.00
2013-7-20,90,81,72,73,65,-100,86,62,31,0.00,40.00,10,6,0,0.00
2013-7-21,92,81,73,78,72,-100,100,79,47,0.00,40.00,18,6,0,0.00
2013-7-22,94,84,74,81,75,-100,100,81,52,0.00,40.00,13,8,0,0.00
2013-7-23,83,76,69,73,70,67,100,80,60,0.00,40.00,21,8,0,0.00
2013-7-24,86,77,66,72,67,63,98,74,46,0.00,40.00,9,4,0,0.00
2013-7-25,82,76,71,74,70,66,100,83,62,0.00,40.00,14,7,0,0.00
2013-7-26,80,74,63,73,64,55,100,75,43,0.00,40.00,16,8,0,0.00
2013-7-27,77,67,56,59,54,49,100,68,41,0.00,40.00,13,7,0,0.00
2013-7-28,81,74,53,58,54,49,88,50,38,0.00,40.00,8,5,0,0.00
2013-7-29,69,66,64,69,64,56,100,92,71,0.00,40.00,12,7,0,0.00
2013-7-30,78,73,68,76,71,68,100,95,81,0.00,40.00,11,6,0,0.00
2013-7-31,87,77,66,74,70,66,100,81,52,0.00,40.00,7,4,0,0.00
2013-8-1,89,78,69,74,68,-100,100,80,47,0.00,40.00,17,7,0,0.00
2013-8-2,86,78,70,76,72,66,100,83,59,0.00,40.00,19,8,0,0.00
2013-8-3,82,73,65,68,66,62,100,78,51,0.00,40.00,11,8,0,0.00
2013-8-4,80,73,64,73,66,61,99,80,64,0.00,40.00,14,8,0,0.00
2013-8-5,88,79,72,80,76,72,100,91,68,0.00,40.00,16,7,0,0.00
2013-8-6,90,81,73,80,75,-100,100,85,65,0.00,40.00,13,6,0,0.00
2013-8-7,88,80,72,81,67,-100,100,73,39,0.00,40.00,12,6,0,0.00
2013-8-8,80,74,67,73,69,67,100,87,64,0.00,40.00,6,5,0,0.00
2013-8-9,84,76,69,74,69,64,100,81,54,0.00,40.00,11,6,0,0.00
2013-8-10,85,80,71,68,65,62,78,62,47,0.00,40.00,34,8,0,0.00
2013-8-11,87,78,68,74,70,66,93,76,54,0.00,40.00,14,9,0,0.00
2013-8-21,94,83,75,77,73,70,93,74,48,0.00,40.00,4,3,0,0.00
2013-8-22,86,80,74,76,73,70,99,81,64,0.00,40.00,4,2,0,0.00
2013-8-23,91,82,73,77,73,67,100,79,47,0.00,40.00,3,2,0,0.00
2013-8-24,93,83,77,77,71,-100,93,72,52,0.00,40.00,5,3,0,0.00
2013-8-25,96,86,76,78,75,72,99,74,46,0.00,40.00,5,3,0,0.00
2013-8-26,97,87,78,76,74,70,93,68,43,0.00,40.00,5,3,0,0.00
2013-8-27,96,85,79,74,72,70,77,67,44,0.00,40.00,5,4,0,0.00
2013-10-8,81,65,50,50,46,44,82,53,29,0.00,40.00,6,4,0,0.00
2013-10-9,83,68,55,54,52,50,84,60,34,0.00,40.00,5,3,0,0.00
2013-10-10,85,69,53,59,55,51,98,65,38,0.00,40.00,5,3,0,0.00
2013-10-11,79,68,56,64,56,37,88,69,22,0.00,40.00,6,3,0,0.00
2013-10-12,69,57,45,45,34,-100,85,50,21,0.00,40.00,4,2,0,0.00
2013-10-13,72,65,53,39,36,32,58,36,24,0.00,40.00,3,2,0,0.00
2013-10-14,63,56,49,63,43,-100,100,80,50,0.00,40.00,5,3,0,0.00
2013-11-2,61,46,38,41,33,-100,100,68,33,0.00,40.00,3,2,0,0.00
2013-11-3,61,52,42,40,36,33,73,57,40,0.00,40.00,6,4,0,0.00
2013-11-4,59,53,45,47,42,38,87,67,48,0.00,40.00,4,2,0,0.00
2013-11-5,47,44,37,47,43,37,100,95,78,0.00,40.00,5,3,0,0.00
2013-11-6,44,39,35,38,37,34,100,93,71,0.00,40.00,4,3,0,0.00
2013-11-7,51,41,35,36,27,-100,100,68,34,0.00,40.00,5,2,0,0.00
2013-11-8,66,51,37,40,34,27,76,54,31,0.00,40.00,8,3,0,0.00
2013-11-10,56,46,37,39,32,28,85,61,35,0.00,40.00,4,2,0,0.00
2013-11-11,47,38,26,47,31,17,100,76,51,0.00,40.00,7,4,0,0.00
2013-11-12,36,28,18,18,12,-100,93,63,28,0.00,40.00,4,2,0,0.00
2013-11-13,56,42,29,28,24,18,65,51,34,0.00,40.00,6,4,0,0.00
2013-11-14,56,46,40,34,29,23,76,51,38,0.00,40.00,5,3,0,0.00
2013-11-15,60,47,34,46,37,32,95,73,45,0.00,40.00,4,3,0,0.00
2013-11-16,64,53,47,60,52,47,100,95,76,0.00,40.00,7,4,0,0.00
2013-12-12,35,29,15,27,22,7,88,73,65,0.00,40.00,4,3,0,0.00
2013-12-13,34,29,23,31,0,-100,100,93,85,0.00,40.00,5,3,0,0.00
2013-12-14,28,25,21,28,16,-100,97,87,79,0.00,40.00,5,3,0,0.00
2013-12-15,34,28,21,30,2,-100,100,93,78,0.00,40.00,3,2,0,0.00
2013-12-16,47,34,20,34,6,-100,100,84,59,0.00,40.00,4,2,0,0.00
2013-12-17,43,37,32,34,21,-100,100,69,35,0.00,40.00,4,3,0,0.00
2013-12-18,60,45,34,32,28,24,69,53,34,0.00,40.00,7,4,0,0.00